Time;durP1;ratioP1;P1;durP2;ratioP2;P2;SDS_P1;SDS_P2;PMS_P1;PMS_P2;Temp;Humidity;BMP_temperature;BMP_pressure;BME280_temperature;BME280_humidity;BME280_pressure;Samples;Min_cycle;Max_cycle;Signal;HPM_P1;HPM_P2
2022/07/15 00:02:05;;;;;;;1999.90;999.90;;;;;;;23.78;41.17;95649.19;5051687;28;20426;-68
2022/07/15 00:04:30;;;;;;;1999.90;999.90;;;;;;;24.01;40.44;95612.88;5070192;28;20400;-68
2022/07/15 00:06:55;;;;;;;1999.90;999.90;;;;;;;24.27;39.62;95618.06;5070566;28;20029;-67
2022/07/15 00:10:13;;;;;;;1999.90;999.90;;;;;;;23.90;40.67;95625.59;5056014;28;20041;-68
2022/07/15 00:12:06;;;;;;;1999.90;999.90;;;;;;;24.06;40.11;95628.81;5066427;28;20028;-68
2022/07/15 00:14:31;;;;;;;1999.90;999.90;;;;;;;23.98;40.18;95635.34;5070749;28;20032;-67
2022/07/15 00:16:56;;;;;;;1999.90;999.90;;;;;;;23.98;40.45;95625.28;5052673;28;20028;-68
2022/07/15 00:19:22;;;;;;;1999.90;999.90;;;;;;;23.67;41.20;95621.16;5071280;28;20077;-68
2022/07/15 00:21:47;;;;;;;1999.90;999.90;;;;;;;24.08;40.63;95627.28;5069260;28;20025;-67
2022/07/15 00:24:12;;;;;;;1999.90;999.90;;;;;;;24.13;40.74;95629.63;5069168;28;20024;-68
2022/07/15 00:26:38;;;;;;;1999.90;999.90;;;;;;;24.41;40.09;95622.03;5069408;28;20047;-68
2022/07/15 00:29:03;;;;;;;1999.90;999.90;;;;;;;24.35;40.38;95627.84;5053482;28;20028;-67
2022/07/15 00:31:29;;;;;;;1999.90;999.90;;;;;;;23.20;42.46;95636.25;5052499;28;20461;-68
2022/07/15 00:33:55;;;;;;;1999.90;999.90;;;;;;;23.00;52.51;95646.50;5069264;28;20061;-67
2022/07/15 00:36:20;;;;;;;1999.90;999.90;;;;;;;22.45;58.92;95612.91;5069956;28;20190;-67
2022/07/15 00:38:45;;;;;;;1999.90;999.90;;;;;;;22.23;63.04;95628.13;5051785;28;20029;-67
2022/07/15 00:41:10;;;;;;;1999.90;999.90;;;;;;;21.81;59.53;95629.03;5069951;28;20133;-67
2022/07/15 00:43:36;;;;;;;1999.90;999.90;;;;;;;21.26;60.01;95618.47;5068894;28;20086;-67
2022/07/15 00:46:01;;;;;;;1999.90;999.90;;;;;;;21.36;64.61;95614.41;5069266;28;20387;-67
2022/07/15 00:48:27;;;;;;;1999.90;999.90;;;;;;;21.59;67.98;95627.13;5052767;28;20082;-66
2022/07/15 00:50:53;;;;;;;1999.90;999.90;;;;;;;21.14;63.27;95642.19;5051936;28;20535;-67
2022/07/15 00:53:20;;;;;;;1999.90;999.90;;;;;;;20.14;67.45;95649.06;5069139;28;20063;-66
2022/07/15 00:55:47;;;;;;;1999.90;999.90;;;;;;;20.79;68.57;95653.94;5069336;28;20052;-67
2022/07/15 00:58:23;;;;;;;1999.90;999.90;;;;;;;20.23;70.04;95649.66;5052631;28;20484;-67
2022/07/15 01:00:50;;;;;;;1999.90;999.90;;;;;;;20.11;70.79;95655.16;5068309;28;20075;-67
2022/07/15 01:03:19;;;;;;;1999.90;999.90;;;;;;;19.20;68.31;95631.81;5070003;28;20107;-67
2022/07/15 01:05:46;;;;;;;1999.90;999.90;;;;;;;18.48;69.97;95625.63;5069108;28;20472;-67
2022/07/15 01:08:12;;;;;;;1999.90;999.90;;;;;;;18.65;72.81;95644.19;5051407;28;20040;-67
2022/07/15 01:10:39;;;;;;;1999.90;999.90;;;;;;;19.11;73.75;95633.09;5069242;28;20534;-67
2022/07/15 01:13:05;;;;;;;1999.90;999.90;;;;;;;19.45;73.98;95640.53;5069744;28;20032;-67
2022/07/15 01:15:33;;;;;;;1999.90;999.90;;;;;;;19.48;75.16;95641.72;5066959;28;20420;-67
2022/07/15 01:18:00;;;;;;;1999.90;999.90;;;;;;;19.49;74.86;95633.28;5069676;28;20031;-67
2022/07/15 01:20:26;;;;;;;1999.90;999.90;;;;;;;19.85;75.38;95641.47;5068879;28;20029;-67
2022/07/15 01:22:51;;;;;;;1999.90;999.90;;;;;;;20.15;75.96;95650.63;5049843;28;20027;-67
2022/07/15 01:25:16;;;;;;;1999.90;999.90;;;;;;;20.40;76.53;95661.19;5069082;28;20024;-67
2022/07/15 01:27:42;;;;;;;1999.90;999.90;;;;;;;20.53;76.21;95673.47;5070082;28;20028;-66
2022/07/15 01:30:08;;;;;;;1999.90;999.90;;;;;;;20.63;76.20;95664.81;5050840;28;20028;-67
2022/07/15 01:32:34;;;;;;;1999.90;999.90;;;;;;;20.70;76.62;95629.81;5067417;28;20097;-67
2022/07/15 01:35:00;;;;;;;1999.90;999.90;;;;;;;20.98;76.69;95639.59;5068992;28;20048;-67
2022/07/15 01:37:25;;;;;;;1999.90;999.90;;;;;;;21.11;76.43;95640.22;5068607;28;20020;-67
2022/07/15 01:39:51;;;;;;;1999.90;999.90;;;;;;;21.04;76.34;95619.25;5067565;28;20086;-67
2022/07/15 01:42:16;;;;;;;1999.90;999.90;;;;;;;21.29;76.80;95646.72;5068209;28;20025;-67
2022/07/15 01:44:42;;;;;;;1999.90;999.90;;;;;;;21.40;76.98;95636.91;5050978;28;20134;-67
2022/07/15 01:47:07;;;;;;;1999.90;999.90;;;;;;;21.48;76.84;95645.91;5068430;28;20103;-66
2022/07/15 01:49:32;;;;;;;1999.90;999.90;;;;;;;21.50;76.50;95646.34;5068760;28;20025;-67
2022/07/15 01:52:00;;;;;;;1999.90;999.90;;;;;;;21.51;76.09;95647.91;5069122;28;20035;-67
2022/07/15 01:54:27;;;;;;;1999.90;999.90;;;;;;;21.51;76.24;95648.69;5066315;28;20057;-67
2022/07/15 01:56:54;;;;;;;1999.90;999.90;;;;;;;21.64;77.09;95649.25;5050772;28;20358;-67
2022/07/15 01:59:24;;;;;;;1999.90;999.90;;;;;;;21.64;76.80;95629.53;5067987;28;20034;-67
2022/07/15 02:01:51;;;;;;;1999.90;999.90;;;;;;;21.68;76.67;95636.56;5068533;28;20163;-67
2022/07/15 02:04:17;;;;;;;1999.90;999.90;;;;;;;21.62;75.32;95635.31;5049191;28;20036;-67
2022/07/15 02:06:43;;;;;;;1999.90;999.90;;;;;;;21.61;75.68;95639.19;5069422;28;20024;-68
2022/07/15 02:09:09;;;;;;;1999.90;999.90;;;;;;;21.54;75.60;95647.16;5049636;28;20036;-67
2022/07/15 02:11:35;;;;;;;1999.90;999.90;;;;;;;21.04;72.80;95643.59;5068403;28;20028;-67
2022/07/15 02:14:01;;;;;;;1999.90;999.90;;;;;;;21.13;74.64;95649.53;5066013;28;20031;-72
2022/07/15 02:16:28;;;;;;;1999.90;999.90;;;;;;;20.89;73.12;95639.81;5050388;28;20025;-71
2022/07/15 02:18:54;;;;;;;1999.90;999.90;;;;;;;20.10;70.76;95648.22;5068844;28;20103;-71
2022/07/15 02:21:19;;;;;;;1999.90;999.90;;;;;;;20.18;72.63;95635.66;5069113;28;20161;-70
2022/07/15 02:23:44;;;;;;;1999.90;999.90;;;;;;;19.85;72.04;95652.25;5066554;28;20024;-71
2022/07/15 02:26:10;;;;;;;1999.90;999.90;;;;;;;20.14;73.73;95648.28;5067927;28;20028;-71
2022/07/15 02:28:35;;;;;;;1999.90;999.90;;;;;;;19.74;71.48;95639.28;5068202;28;20059;-71
2022/07/15 02:31:00;;;;;;;1999.90;999.90;;;;;;;19.72;71.18;95654.28;5047664;28;20469;-71
2022/07/15 02:33:26;;;;;;;1999.90;999.90;;;;;;;19.83;72.80;95646.44;5068368;28;20060;-71
2022/07/15 02:35:51;;;;;;;1999.90;999.90;;;;;;;20.16;73.64;95652.19;5050332;28;20082;-71
2022/07/15 02:38:17;;;;;;;1999.90;999.90;;;;;;;20.06;71.44;95639.22;5066958;28;20040;-70
2022/07/15 02:40:43;;;;;;;1999.90;999.90;;;;;;;20.21;72.78;95640.34;5068855;28;20587;-72
2022/07/15 02:43:09;;;;;;;1999.90;999.90;;;;;;;20.42;73.72;95646.22;5067891;28;20044;-71
2022/07/15 02:45:36;;;;;;;1999.90;999.90;;;;;;;20.58;73.47;95662.41;5050564;28;20468;-71
2022/07/15 02:48:02;;;;;;;1999.90;999.90;;;;;;;20.39;70.74;95659.63;5067656;28;20090;-70
2022/07/15 02:50:28;;;;;;;1999.90;999.90;;;;;;;20.17;69.47;95653.00;5068081;28;20044;-70
2022/07/15 02:52:53;;;;;;;1999.90;999.90;;;;;;;20.18;70.98;95668.06;5068869;28;20037;-71
2022/07/15 02:55:19;;;;;;;1999.90;999.90;;;;;;;20.14;70.42;95651.78;5066209;28;20122;-71
2022/07/15 02:57:44;;;;;;;1999.90;999.90;;;;;;;20.20;70.23;95673.88;5068573;28;20050;-70
2022/07/15 03:00:13;;;;;;;1999.90;999.90;;;;;;;19.75;66.79;95664.38;5066242;28;20032;-70
2022/07/15 03:02:39;;;;;;;1999.90;999.90;;;;;;;19.66;65.52;95669.97;5056542;28;20029;-70
2022/07/15 03:05:05;;;;;;;1999.90;999.90;;;;;;;19.87;66.36;95669.69;5067307;28;20036;-70
2022/07/15 03:07:31;;;;;;;1999.90;999.90;;;;;;;19.92;66.04;95680.22;5069216;28;20033;-70
2022/07/15 03:09:57;;;;;;;1999.90;999.90;;;;;;;19.79;63.44;95676.03;5069852;28;20501;-70
2022/07/15 03:12:22;;;;;;;1999.90;999.90;;;;;;;19.59;66.48;95680.56;5053820;28;20116;-70
2022/07/15 03:14:48;;;;;;;1999.90;999.90;;;;;;;19.92;67.37;95684.84;5072540;28;20079;-69
2022/07/15 03:17:13;;;;;;;1999.90;999.90;;;;;;;19.88;62.53;95676.66;5072692;28;20108;-69
2022/07/15 03:19:39;;;;;;;1999.90;999.90;;;;;;;20.09;65.75;95686.38;5070413;28;20031;-70
2022/07/15 03:22:05;;;;;;;1999.90;999.90;;;;;;;19.93;63.02;95689.09;5071611;28;20030;-69
2022/07/15 03:24:30;;;;;;;1999.90;999.90;;;;;;;19.99;62.29;95682.28;5071086;28;20408;-70
2022/07/15 03:26:56;;;;;;;1999.90;999.90;;;;;;;19.96;62.48;95664.09;5054374;28;20024;-70
2022/07/15 03:29:21;;;;;;;1999.90;999.90;;;;;;;19.94;63.25;95675.25;5053487;28;20366;-70
2022/07/15 03:31:46;;;;;;;1999.90;999.90;;;;;;;19.89;61.03;95690.94;5071782;28;20035;-70
2022/07/15 03:34:12;;;;;;;1999.90;999.90;;;;;;;19.95;59.88;95694.91;5054196;28;20495;-69
2022/07/15 03:36:38;;;;;;;1999.90;999.90;;;;;;;19.74;58.70;95695.97;5070291;28;20024;-69
2022/07/15 03:39:05;;;;;;;1999.90;999.90;;;;;;;19.78;58.08;95689.91;5071629;28;20031;-69
2022/07/15 03:41:30;;;;;;;1999.90;999.90;;;;;;;19.94;60.57;95682.56;5070364;28;20016;-69
2022/07/15 03:43:56;;;;;;;1999.90;999.90;;;;;;;20.13;56.16;95704.22;5071076;28;20039;-70
2022/07/15 03:46:21;;;;;;;1999.90;999.90;;;;;;;19.88;54.71;95694.75;5070203;28;20029;-71
2022/07/15 03:48:47;;;;;;;1999.90;999.90;;;;;;;20.14;55.78;95707.72;5070623;28;20036;-71
2022/07/15 03:51:12;;;;;;;1999.90;999.90;;;;;;;20.20;53.68;95693.56;5070861;28;20028;-69
2022/07/15 03:53:37;;;;;;;1999.90;999.90;;;;;;;20.40;53.04;95691.69;5053777;28;20035;-72
2022/07/15 03:56:03;;;;;;;1999.90;999.90;;;;;;;20.57;51.33;95685.13;5069618;28;20115;-70
2022/07/15 03:58:28;;;;;;;1999.90;999.90;;;;;;;20.87;50.82;95681.88;5071606;28;20020;-70
2022/07/15 04:00:54;;;;;;;1999.90;999.90;;;;;;;20.83;50.45;95679.13;5069410;28;20036;-71
2022/07/15 04:03:19;;;;;;;1999.90;999.90;;;;;;;21.07;51.27;95682.63;5053787;28;20110;-71
2022/07/15 04:05:44;;;;;;;1999.90;999.90;;;;;;;21.28;49.47;95694.63;5070744;28;20024;-71
2022/07/15 04:08:10;;;;;;;1999.90;999.90;;;;;;;21.59;51.29;95689.41;5053870;28;20075;-70
2022/07/15 04:10:36;;;;;;;1999.90;999.90;;;;;;;21.69;50.77;95684.16;5069947;28;20111;-70
2022/07/15 04:13:02;;;;;;;1999.90;999.90;;;;;;;21.80;50.62;95693.25;5070922;28;20033;-69
2022/07/15 04:15:28;;;;;;;1999.90;999.90;;;;;;;21.90;48.61;95693.78;5053005;28;20530;-70
2022/07/15 04:17:53;;;;;;;1999.90;999.90;;;;;;;21.79;47.36;95686.25;5053020;28;20028;-70
2022/07/15 04:20:19;;;;;;;1999.90;999.90;;;;;;;21.62;47.73;95691.38;5070109;28;20032;-71
2022/07/15 04:22:46;;;;;;;1999.90;999.90;;;;;;;21.87;47.55;95692.59;5070198;28;20033;-71
2022/07/15 04:25:15;;;;;;;1999.90;999.90;;;;;;;21.78;46.98;95695.53;5067696;28;20036;-71
2022/07/15 04:27:41;;;;;;;1999.90;999.90;;;;;;;21.97;46.94;95696.59;5070291;28;20052;-70
2022/07/15 04:30:07;;;;;;;1999.90;999.90;;;;;;;22.06;46.91;95697.13;5069307;28;20067;-70
2022/07/15 04:32:33;;;;;;;1999.90;999.90;;;;;;;21.98;46.21;95695.44;5069179;28;20150;-70
2022/07/15 04:34:58;;;;;;;1999.90;999.90;;;;;;;22.10;46.35;95702.59;5052064;28;20040;-70
2022/07/15 04:37:23;;;;;;;1999.90;999.90;;;;;;;21.92;45.89;95705.03;5071008;28;20032;-70
2022/07/15 04:39:49;;;;;;;1999.90;999.90;;;;;;;22.13;45.42;95688.34;5069959;28;20112;-71
2022/07/15 04:42:14;;;;;;;1999.90;999.90;;;;;;;22.14;45.06;95688.00;5052537;28;20048;-71
2022/07/15 04:44:40;;;;;;;1999.90;999.90;;;;;;;21.95;44.75;95694.25;5052859;28;20056;-70
2022/07/15 04:47:05;;;;;;;1999.90;999.90;;;;;;;22.08;45.04;95691.34;5071008;28;20093;-70
2022/07/15 04:52:15;;;;;;;1999.90;999.90;;;;;;;21.94;45.09;95689.97;5070377;28;20089;-70
2022/07/15 04:54:41;;;;;;;1999.90;999.90;;;;;;;22.24;44.67;95695.50;5068856;28;20057;-70
2022/07/15 04:57:06;;;;;;;1999.90;999.90;;;;;;;22.38;44.36;95692.22;5070296;28;20551;-70
2022/07/15 04:59:32;;;;;;;1999.90;999.90;;;;;;;22.44;43.74;95681.81;5070457;28;20032;-70
2022/07/15 05:01:58;;;;;;;1999.90;999.90;;;;;;;22.59;43.49;95689.00;5069455;28;20524;-71
2022/07/15 05:04:23;;;;;;;1999.90;999.90;;;;;;;22.92;42.16;95685.56;5052462;28;20050;-71
2022/07/15 05:06:49;;;;;;;1999.90;999.90;;;;;;;23.01;42.42;95696.13;5052542;28;20108;-71
2022/07/15 05:09:14;;;;;;;1999.90;999.90;;;;;;;23.31;41.59;95683.28;5052690;28;20074;-70
2022/07/15 05:11:40;;;;;;;1999.90;999.90;;;;;;;23.71;40.94;95683.69;5069564;28;20029;-72
2022/07/15 05:14:05;;;;;;;1999.90;999.90;;;;;;;23.95;39.95;95687.72;5051962;28;20036;-70
2022/07/15 05:16:30;;;;;;;1999.90;999.90;;;;;;;24.12;39.93;95692.53;5052479;28;20023;-69
2022/07/15 05:18:56;;;;;;;1999.90;999.90;;;;;;;24.15;40.01;95697.19;5052556;28;20021;-65
2022/07/15 05:21:21;;;;;;;1999.90;999.90;;;;;;;24.15;39.14;95691.75;5068889;28;20032;-65
2022/07/15 05:23:47;;;;;;;1999.90;999.90;;;;;;;24.31;38.89;95696.91;5069860;28;20063;-67
2022/07/15 05:26:12;;;;;;;1999.90;999.90;;;;;;;24.33;38.59;95705.50;5068991;28;20486;-67
2022/07/15 05:28:39;;;;;;;1999.90;999.90;;;;;;;24.30;38.24;95703.50;5052070;28;20052;-67
2022/07/15 05:31:05;;;;;;;1999.90;999.90;;;;;;;24.33;38.78;95705.50;5070156;28;20024;-66
2022/07/15 05:33:30;;;;;;;1999.90;999.90;;;;;;;24.12;38.38;95695.25;5067118;28;20101;-67
2022/07/15 05:35:55;;;;;;;1999.90;999.90;;;;;;;23.46;39.19;95707.84;5069513;28;20021;-67
2022/07/15 05:38:21;;;;;;;1999.90;999.90;;;;;;;23.84;38.73;95712.09;5051803;28;20051;-67
2022/07/15 05:40:46;;;;;;;1999.90;999.90;;;;;;;24.04;38.75;95715.38;5068919;28;20076;-67
2022/07/15 05:43:11;;;;;;;1999.90;999.90;;;;;;;24.35;38.31;95711.31;5051453;28;20031;-67
2022/07/15 05:45:37;;;;;;;1999.90;999.90;;;;;;;24.08;38.17;95722.41;5069688;28;20032;-67
2022/07/15 05:48:02;;;;;;;1999.90;999.90;;;;;;;23.88;38.61;95723.00;5051585;28;20063;-67
2022/07/15 05:50:28;;;;;;;1999.90;999.90;;;;;;;23.73;38.17;95730.25;5050905;28;20029;-67
2022/07/15 05:52:53;;;;;;;1999.90;999.90;;;;;;;23.67;38.64;95735.25;5069156;28;20488;-67
2022/07/15 05:55:18;;;;;;;1999.90;999.90;;;;;;;23.45;39.27;95736.16;5067500;28;20012;-68
2022/07/15 05:57:44;;;;;;;1999.90;999.90;;;;;;;23.57;39.07;95735.88;5068611;28;20036;-67
2022/07/15 06:00:10;;;;;;;1999.90;999.90;;;;;;;23.53;39.12;95735.84;5069128;28;20024;-68
2022/07/15 06:02:36;;;;;;;1999.90;999.90;;;;;;;23.68;38.96;95736.78;5069115;28;20025;-67
2022/07/15 06:05:01;;;;;;;1999.90;999.90;;;;;;;23.76;38.21;95737.66;5051403;28;20035;-67
2022/07/15 06:07:26;;;;;;;1999.90;999.90;;;;;;;23.60;38.15;95746.00;5066485;28;20121;-67
2022/07/15 06:09:52;;;;;;;1999.90;999.90;;;;;;;23.85;38.58;95743.53;5068873;28;20476;-67
2022/07/15 06:12:17;;;;;;;1999.90;999.90;;;;;;;24.19;38.32;95744.22;5067386;28;20028;-69
2022/07/15 06:14:43;;;;;;;1999.90;999.90;;;;;;;24.36;37.39;95737.38;5068083;28;20435;-67
2022/07/15 06:17:08;;;;;;;1999.90;999.90;;;;;;;24.71;36.71;95730.59;5051141;28;20033;-66
2022/07/15 06:19:34;;;;;;;1999.90;999.90;;;;;;;24.13;35.75;95723.97;5069413;28;20029;-69
2022/07/15 06:21:59;;;;;;;1999.90;999.90;;;;;;;24.25;35.86;95739.22;5068760;28;20024;-67
2022/07/15 06:24:25;;;;;;;1999.90;999.90;;;;;;;24.44;36.04;95717.22;5067780;28;20021;-68
2022/07/15 06:26:51;;;;;;;1999.90;999.90;;;;;;;24.60;36.06;95733.25;5050735;28;20078;-68
2022/07/15 06:29:17;;;;;;;1999.90;999.90;;;;;;;24.43;36.73;95742.88;5068229;28;20028;-67
2022/07/15 06:31:42;;;;;;;1999.90;999.90;;;;;;;24.34;36.68;95737.72;5069362;28;20027;-68
2022/07/15 06:34:08;;;;;;;1999.90;999.90;;;;;;;24.37;36.26;95736.22;5050840;28;20557;-68
2022/07/15 06:36:33;;;;;;;1999.90;999.90;;;;;;;24.35;36.28;95736.59;5064383;28;20037;-67
2022/07/15 06:38:58;;;;;;;1999.90;999.90;;;;;;;23.82;35.91;95741.59;5049193;28;20025;-68
2022/07/15 06:41:24;;;;;;;1999.90;999.90;;;;;;;23.91;35.89;95728.47;5053669;28;20499;-68
2022/07/15 06:43:49;;;;;;;1999.90;999.90;;;;;;;23.23;36.88;95754.13;5068389;28;20060;-67
2022/07/15 06:46:15;;;;;;;1999.90;999.90;;;;;;;23.45;36.89;95747.81;5072947;28;20716;-66
2022/07/15 06:48:41;;;;;;;1999.90;999.90;;;;;;;24.06;36.07;95749.19;5071904;28;20449;-66
2022/07/15 06:51:07;;;;;;;1999.90;999.90;;;;;;;24.18;35.49;95748.09;5071722;28;20044;-70
2022/07/15 06:53:33;;;;;;;1999.90;999.90;;;;;;;24.66;34.90;95752.72;5074624;28;20027;-66
2022/07/15 06:55:58;;;;;;;1999.90;999.90;;;;;;;25.24;34.81;95758.09;5076432;28;20058;-67
2022/07/15 06:58:23;;;;;;;1999.90;999.90;;;;;;;25.68;34.29;95754.31;5075402;28;20058;-67
2022/07/15 07:00:49;;;;;;;1999.90;999.90;;;;;;;25.83;33.67;95753.19;5073046;28;20504;-69
2022/07/15 07:03:14;;;;;;;1999.90;999.90;;;;;;;25.93;33.46;95755.16;5068829;28;20111;-68
2022/07/15 07:05:39;;;;;;;1999.90;999.90;;;;;;;25.86;33.09;95762.56;5081328;28;20491;-71
2022/07/15 07:08:05;;;;;;;1999.90;999.90;;;;;;;25.74;33.58;95758.22;5072124;28;20237;-70
2022/07/15 07:10:31;;;;;;;1999.90;999.90;;;;;;;25.79;34.00;95768.75;5071759;28;20016;-67
2022/07/15 07:12:56;;;;;;;1999.90;999.90;;;;;;;24.92;33.90;95765.28;5072658;28;20042;-70
2022/07/15 07:15:23;;;;;;;1999.90;999.90;;;;;;;25.12;33.93;95761.13;5072934;28;20029;-69
2022/07/15 07:17:50;;;;;;;1999.90;999.90;;;;;;;24.43;35.39;95752.97;5068915;28;20041;-68
2022/07/15 07:20:15;;;;;;;1999.90;999.90;;;;;;;24.54;33.73;95764.69;5052773;28;20087;-68
2022/07/15 07:22:41;;;;;;;1999.90;999.90;;;;;;;23.81;34.71;95759.81;5066517;28;20299;-66
2022/07/15 07:25:07;;;;;;;1999.90;999.90;;;;;;;24.13;34.99;95776.41;5072831;28;20025;-67
2022/07/15 07:27:32;;;;;;;1999.90;999.90;;;;;;;23.98;35.78;95763.06;5071904;28;20109;-69
2022/07/15 07:29:57;;;;;;;1999.90;999.90;;;;;;;23.88;35.47;95783.56;5070930;28;20477;-68
2022/07/15 07:32:23;;;;;;;1999.90;999.90;;;;;;;24.05;35.17;95771.28;5072431;28;20056;-69
2022/07/15 07:34:50;;;;;;;1999.90;999.90;;;;;;;24.08;34.67;95765.09;5069040;28;20060;-69
2022/07/15 07:37:15;;;;;;;1999.90;999.90;;;;;;;24.19;35.26;95767.91;5072005;28;20031;-67
2022/07/15 07:39:41;;;;;;;1999.90;999.90;;;;;;;24.11;36.06;95770.56;5072598;28;20032;-68
2022/07/15 07:42:06;;;;;;;1999.90;999.90;;;;;;;24.04;35.85;95770.50;5070326;28;20098;-68
2022/07/15 07:44:31;;;;;;;1999.90;999.90;;;;;;;24.22;34.78;95759.78;5072237;28;20048;-68
2022/07/15 07:46:57;;;;;;;1999.90;999.90;;;;;;;24.25;35.96;95772.59;5072780;28;20058;-70
2022/07/15 07:49:22;;;;;;;1999.90;999.90;;;;;;;24.45;35.31;95769.69;5071804;28;20025;-69
2022/07/15 07:51:47;;;;;;;1999.90;999.90;;;;;;;23.99;35.36;95757.25;5070254;28;20438;-66
2022/07/15 07:54:13;;;;;;;1999.90;999.90;;;;;;;24.30;35.31;95761.38;5071807;28;20495;-67
2022/07/15 07:56:38;;;;;;;1999.90;999.90;;;;;;;24.43;35.91;95758.41;5070263;28;20028;-71
2022/07/15 07:59:03;;;;;;;1999.90;999.90;;;;;;;24.24;35.36;95753.97;5072225;28;20024;-67
2022/07/15 08:01:29;;;;;;;1999.90;999.90;;;;;;;23.97;35.79;95753.38;5071059;28;20087;-66
2022/07/15 08:03:54;;;;;;;1999.90;999.90;;;;;;;23.97;36.29;95743.28;5069836;28;20035;-65
2022/07/15 08:06:20;;;;;;;1999.90;999.90;;;;;;;24.39;36.26;95750.22;5070393;28;20448;-66
2022/07/15 08:08:46;;;;;;;1999.90;999.90;;;;;;;24.18;35.98;95745.38;5068797;28;20073;-69
2022/07/15 08:11:12;;;;;;;1999.90;999.90;;;;;;;24.44;36.10;95738.22;5070979;28;20016;-67
2022/07/15 08:13:38;;;;;;;1999.90;999.90;;;;;;;24.16;35.97;95750.44;5052794;28;20370;-70
2022/07/15 08:16:04;;;;;;;1999.90;999.90;;;;;;;24.56;35.86;95749.53;5070848;28;20039;-69
2022/07/15 08:18:29;;;;;;;1999.90;999.90;;;;;;;24.46;35.38;95741.31;5071100;28;20024;-68
2022/07/15 08:20:55;;;;;;;1999.90;999.90;;;;;;;24.67;35.14;95746.09;5066591;28;20039;-70
2022/07/15 08:23:23;;;;;;;1999.90;999.90;;;;;;;24.37;34.80;95736.22;5071057;28;20159;-68
2022/07/15 08:25:51;;;;;;;1999.90;999.90;;;;;;;24.54;35.10;95740.22;5060990;28;20028;-68
2022/07/15 08:28:17;;;;;;;1999.90;999.90;;;;;;;24.20;34.82;95736.84;5063631;28;20112;-68
2022/07/15 08:30:44;;;;;;;1999.90;999.90;;;;;;;24.33;34.91;95743.56;5070809;28;20047;-68
2022/07/15 08:33:09;;;;;;;1999.90;999.90;;;;;;;23.97;35.54;95748.72;5071215;28;20045;-70
2022/07/15 08:35:36;;;;;;;1999.90;999.90;;;;;;;24.49;34.87;95737.84;5070549;28;20020;-67
2022/07/15 08:38:06;;;;;;;1999.90;999.90;;;;;;;24.97;34.80;95745.88;5082785;28;20527;-68
2022/07/15 08:40:32;;;;;;;1999.90;999.90;;;;;;;25.28;34.89;95745.25;5073508;28;20030;-68
2022/07/15 08:42:57;;;;;;;1999.90;999.90;;;;;;;25.45;34.32;95743.00;5071587;28;20036;-68
2022/07/15 08:45:23;;;;;;;1999.90;999.90;;;;;;;25.35;33.71;95737.13;5070499;28;20124;-68
2022/07/15 08:47:51;;;;;;;1999.90;999.90;;;;;;;25.66;33.69;95746.53;5070279;28;20103;-70
2022/07/15 08:50:17;;;;;;;1999.90;999.90;;;;;;;24.91;34.66;95740.03;5071314;28;20028;-69
2022/07/15 08:52:45;;;;;;;1999.90;999.90;;;;;;;25.31;34.51;95730.09;5070590;28;20388;-68
2022/07/15 08:55:11;;;;;;;1999.90;999.90;;;;;;;25.62;33.86;95744.97;5052147;28;20027;-68
2022/07/15 08:57:37;;;;;;;1999.90;999.90;;;;;;;25.83;33.60;95745.03;5067626;28;20016;-69
2022/07/15 09:00:09;;;;;;;1999.90;999.90;;;;;;;25.93;32.97;95727.13;5070554;28;20029;-68
2022/07/15 09:02:37;;;;;;;1999.90;999.90;;;;;;;25.98;32.89;95720.50;5069468;28;20427;-68
2022/07/15 09:05:23;;;;;;;1999.90;999.90;;;;;;;26.25;32.77;95727.09;5069904;28;20068;-68
2022/07/15 09:07:54;;;;;;;1999.90;999.90;;;;;;;25.99;32.72;95738.41;5070440;28;20103;-68
2022/07/15 09:10:25;;;;;;;1999.90;999.90;;;;;;;25.13;33.39;95724.59;5060430;28;20029;-68
2022/07/15 09:12:53;;;;;;;1999.90;999.90;;;;;;;25.33;33.71;95733.97;5052439;28;20029;-68
2022/07/15 09:15:47;;;;;;;1999.90;999.90;;;;;;;24.80;34.36;95737.25;5052774;28;20025;-68
2022/07/15 09:18:16;;;;;;;1999.90;999.90;;;;;;;24.75;34.82;95734.13;5052824;28;20032;-69
2022/07/15 09:20:43;;;;;;;1999.90;999.90;;;;;;;24.24;35.39;95730.28;5069948;28;20110;-68
2022/07/15 09:23:09;;;;;;;1999.90;999.90;;;;;;;24.78;34.74;95738.81;5068651;28;20037;-68
2022/07/15 09:25:36;;;;;;;1999.90;999.90;;;;;;;25.51;33.59;95730.53;5069921;28;20431;-66
2022/07/15 09:28:03;;;;;;;1999.90;999.90;;;;;;;24.48;33.54;95719.97;5070269;28;20031;-68
2022/07/15 09:36:05;;;;;;;1999.90;999.90;;;;;;;25.51;32.73;95739.50;5070555;28;20043;-68
2022/07/15 09:38:40;;;;;;;1999.90;999.90;;;;;;;25.07;32.96;95734.28;5063541;28;20073;-68
2022/07/15 09:41:06;;;;;;;1999.90;999.90;;;;;;;24.82;33.83;95732.19;5079623;28;20028;-68
2022/07/15 09:43:42;;;;;;;1999.90;999.90;;;;;;;25.23;33.62;95723.84;5067686;28;20024;-69
2022/07/15 09:46:08;;;;;;;1999.90;999.90;;;;;;;25.08;34.08;95735.84;5070152;28;20380;-67
2022/07/15 09:48:39;;;;;;;1999.90;999.90;;;;;;;25.46;33.51;95736.38;5050016;28;20033;-67
2022/07/15 09:51:05;;;;;;;1999.90;999.90;;;;;;;25.16;33.52;95734.72;5051405;28;20032;-66
2022/07/15 09:53:32;;;;;;;1999.90;999.90;;;;;;;25.58;33.51;95723.16;5078745;28;20035;-66
2022/07/15 09:55:58;;;;;;;1999.90;999.90;;;;;;;26.12;33.41;95731.41;5082380;28;20150;-68
2022/07/15 09:58:25;;;;;;;1999.90;999.90;;;;;;;25.96;32.51;95722.84;5069984;28;20086;-67
2022/07/15 10:00:52;;;;;;;1999.90;999.90;;;;;;;25.24;33.21;95732.81;5051869;28;20158;-66
2022/07/15 10:03:19;;;;;;;1999.90;999.90;;;;;;;24.25;34.82;95731.06;5068542;28;20032;-65
2022/07/15 10:05:46;;;;;;;1999.90;999.90;;;;;;;24.58;34.18;95727.44;5049695;28;20016;-65
2022/07/15 10:08:14;;;;;;;1999.90;999.90;;;;;;;25.04;33.26;95722.22;5075029;28;20024;-66
2022/07/15 10:10:39;;;;;;;1999.90;999.90;;;;;;;25.38;33.00;95720.00;5086803;28;20028;-66
2022/07/15 10:13:35;;;;;;;1999.90;999.90;;;;;;;25.87;33.74;95717.78;5068180;28;20021;-66
2022/07/15 10:16:10;;;;;;;1999.90;999.90;;;;;;;26.37;32.68;95717.75;5051502;28;20020;-66
2022/07/15 10:18:56;;;;;;;1999.90;999.90;;;;;;;26.71;32.33;95712.63;5052129;28;20028;-70
2022/07/15 10:21:44;;;;;;;1999.90;999.90;;;;;;;27.05;32.25;95714.88;5072488;28;20048;-69
2022/07/15 10:24:32;;;;;;;1999.90;999.90;;;;;;;26.76;30.88;95711.44;5063239;28;20067;-71
2022/07/15 10:27:16;;;;;;;1999.90;999.90;;;;;;;27.04;30.39;95708.63;5064611;28;20082;-72
2022/07/15 10:29:41;;;;;;;1999.90;999.90;;;;;;;27.01;30.14;95717.59;5056042;28;20036;-72
2022/07/15 10:32:06;;;;;;;1999.90;999.90;;;;;;;26.37;31.22;95707.63;5053474;28;20021;-71
2022/07/15 10:34:37;;;;;;;1999.90;999.90;;;;;;;26.25;30.64;95699.84;5071150;28;20381;-72
2022/07/15 10:37:07;;;;;;;1999.90;999.90;;;;;;;26.31;30.22;95692.84;5071490;28;20059;-69
2022/07/15 10:39:55;;;;;;;1999.90;999.90;;;;;;;26.44;30.01;95707.63;5067491;28;20059;-69
2022/07/15 10:42:22;;;;;;;1999.90;999.90;;;;;;;26.79;30.43;95702.50;5070897;28;20039;-71
2022/07/15 10:45:00;;;;;;;1999.90;999.90;;;;;;;25.43;31.97;95710.66;5055790;28;20508;-70
2022/07/15 10:47:25;;;;;;;1999.90;999.90;;;;;;;25.77;31.79;95708.44;5070575;28;20771;-68
2022/07/15 10:49:51;;;;;;;1999.90;999.90;;;;;;;26.48;31.21;95706.88;5072702;28;20107;-71
2022/07/15 10:52:24;;;;;;;1999.90;999.90;;;;;;;24.92;32.81;95714.38;5073368;28;20480;-73
2022/07/15 10:55:00;;;;;;;1999.90;999.90;;;;;;;25.22;32.26;95711.41;5088339;28;20472;-66
2022/07/15 10:57:41;;;;;;;1999.90;999.90;;;;;;;25.30;32.52;95714.94;5072823;28;20037;-65
2022/07/15 11:00:27;;;;;;;1999.90;999.90;;;;;;;25.95;31.48;95696.75;5055014;28;20028;-66
2022/07/15 11:03:08;;;;;;;1999.90;999.90;;;;;;;25.55;32.07;95707.59;5054570;28;20442;-65